Time;durP1;ratioP1;P1;durP2;ratioP2;P2;SDS_P1;SDS_P2;PMS_P1;PMS_P2;Temp;Humidity;BMP_temperature;BMP_pressure;BME280_temperature;BME280_humidity;BME280_pressure;Samples;Min_cycle;Max_cycle;Signal;HPM_P1;HPM_P2
2021/11/02 00:00:02;;;;;;;26.48;16.88;;;;;;;10.61;81.42;96101.75;5096741;28;20121;-63
2021/11/02 00:02:28;;;;;;;22.15;16.73;;;;;;;10.61;81.49;96100.88;5097096;28;20077;-61
2021/11/02 00:04:54;;;;;;;27.83;17.38;;;;;;;10.60;82.14;96084.34;5096924;28;20073;-64
2021/11/02 00:07:20;;;;;;;341.55;30.27;;;;;;;10.56;82.98;96087.16;5096905;28;20036;-62
2021/11/02 00:09:48;;;;;;;61.42;24.50;;;;;;;10.57;83.95;96088.88;5096914;28;20470;-62
2021/11/02 00:12:14;;;;;;;210.75;22.48;;;;;;;10.53;84.67;96089.94;5096903;28;20065;-64
2021/11/02 00:14:40;;;;;;;334.38;24.88;;;;;;;10.49;86.22;96094.44;5096812;28;20157;-64
2021/11/02 00:17:11;;;;;;;389.75;30.92;;;;;;;10.46;85.96;96098.06;5096637;28;20374;-63
2021/11/02 00:19:40;;;;;;;596.45;36.70;;;;;;;10.49;86.33;96091.81;5096719;28;20038;-64
2021/11/02 00:22:14;;;;;;;324.10;30.52;;;;;;;10.48;86.26;96087.53;5096561;28;20389;-64
2021/11/02 00:24:57;;;;;;;456.15;30.20;;;;;;;10.43;86.59;96081.59;5096635;28;20384;-61
2021/11/02 00:27:25;;;;;;;444.80;28.15;;;;;;;10.42;86.44;96069.47;5096589;28;20088;-65
2021/11/02 00:29:51;;;;;;;426.10;25.95;;;;;;;10.42;86.95;96065.06;5096446;28;20032;-61
2021/11/02 00:32:17;;;;;;;414.13;24.65;;;;;;;10.38;87.52;96071.34;5096492;28;20386;-64
2021/11/02 00:34:43;;;;;;;383.40;21.70;;;;;;;10.40;87.61;96068.66;5096437;28;20027;-62
2021/11/02 00:37:08;;;;;;;579.00;26.98;;;;;;;10.42;87.67;96059.84;5096434;28;20092;-64
2021/11/02 00:39:34;;;;;;;412.30;23.33;;;;;;;10.40;87.60;96066.91;5096220;28;20024;-60
2021/11/02 00:42:01;;;;;;;529.55;28.98;;;;;;;10.44;87.52;96062.38;5096282;28;20020;-60
2021/11/02 00:44:26;;;;;;;395.23;24.55;;;;;;;10.48;87.38;96061.38;5096128;28;20024;-65
2021/11/02 00:46:52;;;;;;;450.63;27.00;;;;;;;10.51;87.12;96055.16;5096001;28;20095;-63
2021/11/02 00:49:20;;;;;;;73.68;17.45;;;;;;;10.52;86.98;96054.22;5095788;28;20462;-62
2021/11/02 00:51:46;;;;;;;521.15;33.03;;;;;;;10.52;86.74;96055.09;5096043;28;20111;-62
2021/11/02 00:54:12;;;;;;;566.88;33.67;;;;;;;10.55;86.79;96049.72;5095957;28;20450;-63
2021/11/02 00:56:38;;;;;;;391.23;25.98;;;;;;;10.57;86.91;96047.03;5095886;28;20016;-62
2021/11/02 00:59:04;;;;;;;435.65;25.08;;;;;;;10.58;86.70;96052.19;5095647;28;20542;-62
2021/11/02 01:01:30;;;;;;;581.53;31.73;;;;;;;10.52;86.79;96038.53;5095897;28;20035;-65
2021/11/02 01:03:55;;;;;;;584.85;35.92;;;;;;;10.48;86.85;96043.91;5095825;28;20039;-64
2021/11/02 01:06:21;;;;;;;431.88;29.13;;;;;;;10.34;87.77;96043.66;5095706;28;20386;-61
2021/11/02 01:08:47;;;;;;;503.15;35.35;;;;;;;10.34;87.89;96041.03;5095551;28;20367;-64
2021/11/02 01:11:13;;;;;;;403.77;35.22;;;;;;;10.30;87.94;96034.25;5095569;28;20046;-63
2021/11/02 01:13:38;;;;;;;420.85;32.85;;;;;;;10.28;87.88;96026.47;5095501;28;20431;-64
2021/11/02 01:16:04;;;;;;;561.88;36.30;;;;;;;10.30;87.88;96022.00;5095682;28;20076;-63
2021/11/02 01:18:30;;;;;;;667.08;40.80;;;;;;;10.31;87.81;96021.13;5095446;28;20474;-60
2021/11/02 01:20:56;;;;;;;510.23;42.95;;;;;;;10.14;88.07;96002.75;5095419;28;20796;-62
2021/11/02 01:23:22;;;;;;;517.90;39.83;;;;;;;10.04;88.68;95997.06;5095410;28;20111;-62
2021/11/02 01:25:47;;;;;;;410.63;38.45;;;;;;;10.04;88.69;96000.53;5095461;28;20095;-59
2021/11/02 01:28:13;;;;;;;365.48;34.70;;;;;;;10.10;88.53;96002.00;5095179;28;20107;-60
2021/11/02 01:30:38;;;;;;;315.10;36.72;;;;;;;10.11;88.33;96001.09;5095234;28;20031;-63
2021/11/02 01:33:04;;;;;;;657.22;47.03;;;;;;;10.12;88.25;95994.97;5095302;28;20363;-63
2021/11/02 01:35:30;;;;;;;419.42;39.30;;;;;;;10.11;88.50;95988.03;5095196;28;20028;-60
2021/11/02 01:37:56;;;;;;;418.40;34.08;;;;;;;10.11;88.52;95995.88;5095237;28;20024;-64
2021/11/02 01:40:21;;;;;;;488.73;33.63;;;;;;;9.98;89.46;95990.34;5095102;28;20085;-62
2021/11/02 01:42:47;;;;;;;745.75;47.20;;;;;;;9.99;89.45;95998.13;5094914;28;20032;-64
2021/11/02 01:45:15;;;;;;;533.40;40.63;;;;;;;10.02;89.52;95989.28;5094993;28;20035;-63
2021/11/02 01:47:47;;;;;;;473.48;34.67;;;;;;;9.99;89.35;95998.13;5094774;28;20039;-65
2021/11/02 01:50:14;;;;;;;364.45;36.63;;;;;;;10.02;89.34;95997.13;5094902;28;20027;-62
2021/11/02 01:52:40;;;;;;;644.05;43.33;;;;;;;10.06;89.12;95997.84;5094836;28;20466;-60
2021/11/02 01:55:11;;;;;;;693.70;47.10;;;;;;;10.07;89.14;96003.00;5094807;28;20030;-60
2021/11/02 01:57:36;;;;;;;559.63;34.97;;;;;;;9.90;89.50;95997.69;5094715;28;20535;-61
2021/11/02 02:00:07;;;;;;;782.20;45.65;;;;;;;9.89;89.70;95993.34;5094441;28;20040;-65
2021/11/02 02:03:05;;;;;;;770.65;44.38;;;;;;;9.85;89.86;95990.06;5094045;28;20036;-62
2021/11/02 02:05:43;;;;;;;766.60;48.90;;;;;;;9.90;89.70;95995.91;5090666;28;20064;-62
2021/11/02 02:08:42;;;;;;;664.65;43.45;;;;;;;9.87;89.68;95993.44;5094488;28;20077;-60
2021/11/02 02:11:20;;;;;;;620.08;41.63;;;;;;;9.84;89.67;95985.72;5094282;28;20121;-61
2021/11/02 02:13:53;;;;;;;739.40;52.33;;;;;;;9.79;89.75;95982.47;5094515;28;20020;-62
2021/11/02 02:16:40;;;;;;;610.95;44.03;;;;;;;9.76;89.85;95986.09;5094490;28;20161;-62
2021/11/02 02:19:30;;;;;;;664.17;49.65;;;;;;;9.72;89.99;95994.94;5094423;28;20115;-64
2021/11/02 02:22:23;;;;;;;607.85;45.40;;;;;;;9.69;90.03;95995.09;5094324;28;20032;-61
2021/11/02 02:25:10;;;;;;;856.40;55.40;;;;;;;9.67;89.89;95996.91;5094316;28;20032;-64
2021/11/02 02:28:00;;;;;;;687.85;49.47;;;;;;;9.64;90.21;95992.69;5094141;28;20064;-63
2021/11/02 02:30:27;;;;;;;635.20;47.13;;;;;;;9.65;90.05;96004.81;5093137;28;20028;-63
2021/11/02 02:32:55;;;;;;;453.65;39.88;;;;;;;9.67;90.15;95999.53;5094131;28;20469;-62
2021/11/02 02:35:22;;;;;;;720.45;49.78;;;;;;;9.72;90.03;96003.63;5094095;28;20035;-64
2021/11/02 02:37:49;;;;;;;718.33;53.15;;;;;;;9.77;89.76;96003.44;5093916;28;20012;-64
2021/11/02 02:40:16;;;;;;;546.42;43.97;;;;;;;9.79;89.44;96000.75;5094037;28;20355;-62
2021/11/02 02:42:45;;;;;;;766.60;51.42;;;;;;;9.83;89.33;95990.13;5094051;28;20509;-62
2021/11/02 02:45:13;;;;;;;719.65;45.20;;;;;;;9.81;89.03;96001.56;5093885;28;20072;-62
2021/11/02 02:47:42;;;;;;;446.70;35.83;;;;;;;9.79;88.80;95987.69;5093677;28;20028;-62
2021/11/02 02:50:08;;;;;;;447.42;32.90;;;;;;;9.76;88.82;95983.47;5093688;28;20028;-60
2021/11/02 02:52:35;;;;;;;606.63;47.78;;;;;;;9.75;88.66;95978.31;5093783;28;20081;-61
2021/11/02 02:55:03;;;;;;;379.08;28.98;;;;;;;9.70;88.81;95986.34;5093854;28;20550;-60
2021/11/02 02:57:29;;;;;;;388.23;34.20;;;;;;;9.67;88.62;95986.47;5093675;28;20028;-59
2021/11/02 02:59:56;;;;;;;270.65;31.63;;;;;;;9.69;88.48;96000.31;5093376;28;20445;-63
2021/11/02 03:02:25;;;;;;;424.80;38.13;;;;;;;9.70;88.32;96012.47;5093571;28;20372;-61
2021/11/02 03:04:54;;;;;;;317.35;33.00;;;;;;;9.75;88.12;96017.50;5093488;28;20099;-62
2021/11/02 03:07:21;;;;;;;106.95;26.58;;;;;;;9.79;87.77;96013.81;5093432;28;20075;-64
2021/11/02 03:09:47;;;;;;;102.07;25.60;;;;;;;9.83;87.62;96020.59;5093488;28;20500;-63
2021/11/02 03:12:19;;;;;;;81.55;27.48;;;;;;;9.88;87.42;96025.63;5093370;28;20508;-63
2021/11/02 03:17:26;;;;;;;67.50;26.73;;;;;;;9.99;86.36;96010.31;5093423;28;20023;-62
2021/11/02 03:45:03;;;;;;;48.67;25.17;;;;;;;9.91;84.98;95981.09;5093445;28;20046;-62
2021/11/02 03:50:40;;;;;;;45.83;23.52;;;;;;;9.96;84.99;95987.81;5093409;28;20177;-61
2021/11/02 03:58:45;;;;;;;41.25;22.88;;;;;;;10.07;84.14;95976.03;5093078;28;20024;-61
2021/11/02 04:01:26;;;;;;;40.53;21.27;;;;;;;10.08;83.79;95956.81;5092736;28;20082;-64
2021/11/02 04:26:52;;;;;;;33.22;20.75;;;;;;;9.59;83.98;95905.84;5096012;28;20146;-63
2021/11/02 05:10:13;;;;;;;29.35;19.65;;;;;;;9.75;82.97;95926.91;5095850;28;20024;-61
2021/11/02 05:56:37;;;;;;;23.23;16.55;;;;;;;9.32;84.42;95891.34;5084420;28;20039;-65
2021/11/02 06:10:13;;;;;;;25.58;17.25;;;;;;;9.53;82.87;95887.84;5094655;28;20028;-62
2021/11/02 06:29:29;;;;;;;28.88;18.40;;;;;;;9.32;83.06;95922.66;5094579;28;20122;-62
2021/11/02 06:31:59;;;;;;;69.53;15.67;;;;;;;9.06;83.59;95916.78;5094177;28;20097;-62
2021/11/02 07:19:33;;;;;;;25.98;16.65;;;;;;;9.12;82.38;95909.59;5093565;28;20478;-65
2021/11/02 07:22:17;;;;;;;25.30;16.45;;;;;;;9.20;82.51;95915.34;5093358;28;20027;-62
2021/11/02 08:46:36;;;;;;;22.85;17.42;;;;;;;10.96;72.00;95855.03;5096651;28;20444;-63
2021/11/02 08:49:04;;;;;;;23.90;15.98;;;;;;;10.78;72.19;95848.13;5096088;28;20100;-61
2021/11/02 08:51:30;;;;;;;24.13;16.50;;;;;;;10.70;72.67;95853.75;5096049;28;20103;-62
2021/11/02 08:53:56;;;;;;;22.65;17.15;;;;;;;10.67;74.02;95851.28;5096142;28;20505;-63
2021/11/02 08:56:22;;;;;;;22.20;16.50;;;;;;;10.61;73.72;95842.81;5095983;28;20039;-62
2021/11/02 08:58:51;;;;;;;23.38;16.92;;;;;;;10.63;73.23;95845.38;5096036;28;20118;-63
2021/11/02 09:01:18;;;;;;;20.55;16.15;;;;;;;10.65;73.95;95842.66;5095795;28;20052;-63
2021/11/02 09:03:51;;;;;;;20.45;16.48;;;;;;;10.69;74.24;95844.22;5095810;28;20024;-64
2021/11/02 09:06:24;;;;;;;21.35;16.05;;;;;;;10.67;74.06;95843.44;5096125;28;20444;-62
2021/11/02 09:08:56;;;;;;;21.50;16.88;;;;;;;10.51;74.60;95835.50;5095897;28;20028;-65
2021/11/02 09:11:27;;;;;;;21.73;16.38;;;;;;;10.44;75.49;95835.75;5095590;28;20085;-61
2021/11/02 09:13:55;;;;;;;24.58;17.25;;;;;;;10.42;75.17;95831.53;5095643;28;20059;-64
2021/11/02 09:16:22;;;;;;;23.77;16.38;;;;;;;10.41;75.52;95817.59;5095730;28;20093;-62
2021/11/02 09:18:49;;;;;;;25.10;18.00;;;;;;;10.49;76.43;95825.09;5095845;28;20047;-60
2021/11/02 09:21:16;;;;;;;21.73;17.13;;;;;;;10.61;77.25;95823.66;5095555;28;20028;-59
2021/11/02 09:23:46;;;;;;;21.55;16.25;;;;;;;10.78;76.89;95816.75;5095392;28;20377;-63
2021/11/02 09:26:15;;;;;;;20.35;16.23;;;;;;;10.91;75.40;95807.34;5095483;28;20516;-62
2021/11/02 09:28:41;;;;;;;23.77;17.33;;;;;;;10.99;75.44;95804.34;5095441;28;20119;-63
2021/11/02 09:31:07;;;;;;;21.20;16.92;;;;;;;11.05;75.69;95804.00;5095443;28;20438;-64
2021/11/02 09:33:33;;;;;;;28.60;20.23;;;;;;;11.05;74.95;95806.63;5095250;28;20059;-62
2021/11/02 09:36:07;;;;;;;29.10;20.48;;;;;;;11.07;74.83;95803.94;5095245;28;20028;-63
2021/11/02 09:38:42;;;;;;;27.98;19.08;;;;;;;10.99;75.44;95810.41;5095210;28;20027;-64
2021/11/02 09:41:13;;;;;;;26.98;19.55;;;;;;;11.04;75.33;95804.06;5095266;28;20381;-64
2021/11/02 09:44:13;;;;;;;28.95;20.70;;;;;;;11.06;75.91;95802.25;5095235;28;20107;-64
2021/11/02 09:47:01;;;;;;;32.47;21.57;;;;;;;11.07;75.59;95793.44;5095027;28;20078;-61
2021/11/02 09:49:49;;;;;;;26.55;19.88;;;;;;;11.12;75.29;95787.09;5094919;28;20524;-63
2021/11/02 09:52:23;;;;;;;29.38;21.30;;;;;;;11.14;75.41;95799.22;5095104;28;20158;-62
2021/11/02 09:55:19;;;;;;;29.63;21.80;;;;;;;11.00;76.71;95790.31;5094908;28;20478;-63
2021/11/02 09:58:03;;;;;;;30.13;22.05;;;;;;;11.01;77.24;95791.19;5094821;28;20032;-61
2021/11/02 10:00:36;;;;;;;28.15;21.50;;;;;;;10.99;77.13;95789.47;5094604;28;20048;-63
2021/11/02 10:03:10;;;;;;;31.90;23.52;;;;;;;10.86;77.69;95781.41;5094772;28;20111;-64
2021/11/02 10:06:09;;;;;;;34.35;24.77;;;;;;;10.83;78.40;95792.03;5094707;28;20042;-63
2021/11/02 10:08:38;;;;;;;38.22;25.23;;;;;;;10.84;78.62;95788.47;5093347;28;20024;-64
2021/11/02 10:11:28;;;;;;;36.38;25.15;;;;;;;10.81;78.77;95787.81;5094457;28;20024;-67
2021/11/02 10:14:16;;;;;;;43.22;26.38;;;;;;;10.70;79.14;95790.97;5094662;28;20031;-64
2021/11/02 10:17:08;;;;;;;35.97;25.13;;;;;;;10.59;79.85;95789.72;5094546;28;20085;-64
2021/11/02 10:19:57;;;;;;;39.20;26.48;;;;;;;10.57;80.02;95791.56;5094724;28;20093;-63
2021/11/02 10:23:00;;;;;;;42.38;28.75;;;;;;;10.51;80.69;95794.50;5093770;28;20038;-64
2021/11/02 10:25:35;;;;;;;37.90;26.63;;;;;;;10.51;80.66;95791.91;5094250;28;20542;-64
2021/11/02 10:28:19;;;;;;;39.50;27.25;;;;;;;10.53;81.32;95787.41;5094079;28;20470;-61
2021/11/02 10:31:16;;;;;;;41.40;27.48;;;;;;;10.59;81.24;95784.50;5094238;28;20428;-62
2021/11/02 10:34:12;;;;;;;43.85;25.85;;;;;;;10.58;81.24;95772.34;5094240;28;20032;-64
2021/11/02 10:37:25;;;;;;;38.67;26.05;;;;;;;10.63;80.93;95772.13;5094020;28;20047;-64
2021/11/02 10:40:08;;;;;;;37.45;26.20;;;;;;;10.62;81.25;95767.81;5051702;28;20032;-64
2021/11/02 10:42:57;;;;;;;31.15;21.15;;;;;;;10.66;80.65;95764.13;5050646;28;20048;-64
2021/11/02 10:45:28;;;;;;;32.30;22.27;;;;;;;10.71;80.70;95759.50;5085640;28;20436;-63
2021/11/02 10:48:05;;;;;;;32.45;22.25;;;;;;;10.70;80.65;95763.03;5093874;28;20028;-65
2021/11/02 10:50:37;;;;;;;28.05;20.40;;;;;;;10.73;80.47;95769.88;5093880;28;20375;-65
2021/11/02 10:53:07;;;;;;;25.05;18.65;;;;;;;10.74;80.56;95768.94;5093771;28;20516;-66
2021/11/02 10:56:14;;;;;;;29.85;19.85;;;;;;;10.74;80.39;95761.97;5093842;28;20069;-64
2021/11/02 10:58:49;;;;;;;22.88;17.25;;;;;;;10.68;80.15;95777.09;5093150;28;20035;-62
2021/11/02 11:01:17;;;;;;;32.10;22.10;;;;;;;10.69;80.41;95784.88;5093683;28;20044;-60
2021/11/02 11:03:44;;;;;;;30.73;22.20;;;;;;;10.63;80.24;95786.97;5093495;28;20028;-64
2021/11/02 11:06:13;;;;;;;35.17;24.58;;;;;;;10.58;80.97;95793.28;5093538;28;20024;-64
2021/11/02 11:08:41;;;;;;;32.50;24.10;;;;;;;10.60;80.86;95786.19;5093522;28;20031;-65
2021/11/02 11:11:16;;;;;;;29.25;20.25;;;;;;;10.61;80.80;95793.13;5093480;28;20016;-63
2021/11/02 11:13:47;;;;;;;27.55;19.70;;;;;;;10.53;80.62;95787.41;5093412;28;20119;-60
2021/11/02 11:16:18;;;;;;;30.50;19.58;;;;;;;10.52;80.85;95792.72;5093449;28;20028;-64
2021/11/02 11:19:10;;;;;;;30.52;20.15;;;;;;;10.51;80.44;95789.28;5093463;28;20050;-60
2021/11/02 11:21:42;;;;;;;30.95;22.25;;;;;;;10.53;80.50;95792.66;5093561;28;20055;-62
2021/11/02 11:24:07;;;;;;;30.75;23.17;;;;;;;10.54;80.15;95796.94;5093355;28;20024;-63
2021/11/02 11:26:34;;;;;;;29.15;21.08;;;;;;;10.47;80.42;95803.41;5093300;28;20084;-62
2021/11/02 11:29:06;;;;;;;32.67;21.77;;;;;;;10.48;80.65;95805.94;5093245;28;20055;-61
2021/11/02 11:31:33;;;;;;;34.85;24.98;;;;;;;10.42;80.89;95813.22;5093355;28;20085;-62
2021/11/02 11:34:01;;;;;;;44.67;35.20;;;;;;;10.46;81.05;95823.50;5092527;28;20020;-62
2021/11/02 11:36:29;;;;;;;31.63;20.90;;;;;;;10.46;80.77;95825.25;5093054;28;20024;-65
2021/11/02 11:39:01;;;;;;;25.05;18.77;;;;;;;10.48;80.92;95819.03;5093091;28;20020;-64
2021/11/02 11:41:28;;;;;;;22.85;18.15;;;;;;;10.48;80.79;95811.19;5093145;28;20032;-63
2021/11/02 11:43:55;;;;;;;15.07;13.02;;;;;;;10.44;80.65;95793.06;5093172;28;20028;-64
2021/11/02 11:46:24;;;;;;;17.42;12.80;;;;;;;10.43;79.28;95773.09;5093083;28;20042;-62
2021/11/02 11:48:55;;;;;;;20.48;13.15;;;;;;;10.39;79.22;95769.78;5093055;28;20390;-61
2021/11/02 11:51:25;;;;;;;;;;;;;;;10.45;79.47;95763.41;5093574;28;20032;-64
2021/11/02 11:54:01;;;;;;;15.52;12.63;;;;;;;10.39;78.63;95735.81;5093107;28;19912;-63
2021/11/02 11:56:37;;;;;;;17.92;12.85;;;;;;;10.26;78.82;95709.41;5093135;28;20036;-64
2021/11/02 11:59:05;;;;;;;21.60;13.75;;;;;;;10.10;79.83;95714.56;5092908;28;20024;-61
2021/11/02 12:01:51;;;;;;;18.55;13.20;;;;;;;9.92;80.07;95705.84;5092942;28;20035;-60
2021/11/02 12:04:39;;;;;;;26.63;19.40;;;;;;;9.91;81.03;95709.41;5091757;28;20485;-64
2021/11/02 12:07:23;;;;;;;19.73;14.70;;;;;;;9.95;80.74;95701.34;5093106;28;20035;-64
2021/11/02 12:09:50;;;;;;;20.00;14.32;;;;;;;9.98;80.93;95682.91;5092893;28;20035;-63
2021/11/02 12:12:16;;;;;;;16.98;13.93;;;;;;;9.95;80.74;95682.19;5092878;28;20020;-63
2021/11/02 12:14:55;;;;;;;21.98;15.05;;;;;;;9.95;80.66;95680.44;5092832;28;20039;-63
2021/11/02 12:17:23;;;;;;;16.30;12.45;;;;;;;9.99;80.53;95681.13;5092793;28;20362;-61
2021/11/02 12:20:04;;;;;;;16.98;12.95;;;;;;;10.04;80.62;95696.56;5092811;28;20028;-65
2021/11/02 12:22:52;;;;;;;18.35;13.60;;;;;;;10.13;80.59;95690.03;5091711;28;20028;-64
2021/11/02 12:25:32;;;;;;;14.93;12.20;;;;;;;10.24;80.42;95695.59;5092884;28;20032;-62
2021/11/02 12:27:59;;;;;;;16.30;12.65;;;;;;;10.28;80.35;95694.50;5092696;28;20036;-62
2021/11/02 12:30:25;;;;;;;18.88;13.52;;;;;;;10.37;80.08;95721.94;5092744;28;20052;-61
2021/11/02 12:32:56;;;;;;;19.85;14.55;;;;;;;10.41;80.25;95727.88;5092727;28;20059;-60
2021/11/02 12:35:52;;;;;;;20.98;15.82;;;;;;;10.30;80.67;95725.81;5092644;28;20069;-64
2021/11/02 12:38:29;;;;;;;21.20;16.23;;;;;;;10.33;81.02;95720.41;5092518;28;20036;-62
2021/11/02 12:40:55;;;;;;;21.70;14.77;;;;;;;10.40;81.61;95715.72;5092611;28;20028;-61
2021/11/02 12:43:25;;;;;;;16.00;13.05;;;;;;;10.45;81.62;95711.97;5092555;28;20458;-62
2021/11/02 12:45:56;;;;;;;18.57;12.83;;;;;;;10.49;80.54;95704.84;5093776;28;20024;-64
2021/11/02 12:48:21;;;;;;;;;;;;;;;10.53;80.33;95697.69;5096500;28;20043;-64
2021/11/02 12:50:51;;;;;;;15.63;11.93;;;;;;;10.55;78.93;95682.75;5096166;28;19912;-63
2021/11/02 12:53:17;;;;;;;13.18;11.35;;;;;;;10.46;78.97;95664.00;5096129;28;20035;-63
2021/11/02 12:55:45;;;;;;;12.63;10.70;;;;;;;10.53;78.90;95695.06;5096049;28;20474;-64
2021/11/02 12:58:11;;;;;;;12.00;10.02;;;;;;;10.60;78.94;95714.75;5096094;28;20035;-64
2021/11/02 13:00:50;;;;;;;18.45;11.52;;;;;;;10.66;79.45;95722.28;5095678;28;20044;-61
2021/11/02 13:03:28;;;;;;;13.45;11.15;;;;;;;10.73;79.72;95725.41;5095834;28;20024;-61
2021/11/02 13:06:08;;;;;;;16.67;12.02;;;;;;;10.82;80.03;95726.72;5095875;28;20017;-65
2021/11/02 13:08:41;;;;;;;12.98;10.82;;;;;;;10.87;79.87;95709.00;5095794;28;20035;-64
2021/11/02 13:11:19;;;;;;;12.18;9.77;;;;;;;10.86;78.04;95699.44;5095854;28;20482;-63
2021/11/02 13:13:58;;;;;;;12.15;9.57;;;;;;;10.95;77.71;95692.88;5095761;28;20390;-64
2021/11/02 13:16:26;;;;;;;11.93;9.60;;;;;;;10.98;76.66;95700.56;5095880;28;20028;-61
2021/11/02 13:18:52;;;;;;;11.07;9.80;;;;;;;11.01;76.26;95692.56;5094542;28;20027;-64
2021/11/02 13:21:24;;;;;;;12.88;10.18;;;;;;;11.04;76.68;95695.03;5095752;28;20024;-64
2021/11/02 13:24:00;;;;;;;11.55;9.80;;;;;;;11.10;76.95;95689.47;5095632;28;20056;-66
2021/11/02 13:26:32;;;;;;;13.55;10.13;;;;;;;11.17;76.42;95699.59;5095484;28;20024;-63
2021/11/02 13:29:13;;;;;;;12.63;10.25;;;;;;;11.25;75.62;95693.03;5095422;28;20028;-60
2021/11/02 13:31:38;;;;;;;;;;;;;;;11.26;75.41;95688.66;5095811;28;20028;-63
2021/11/02 13:34:07;;;;;;;11.85;8.90;;;;;;;11.18;75.59;95683.81;5095306;28;19912;-62
2021/11/02 13:36:33;;;;;;;11.45;8.88;;;;;;;11.25;76.36;95685.16;5095269;28;20115;-65
2021/11/02 13:39:14;;;;;;;14.63;8.70;;;;;;;11.31;76.57;95694.47;5093944;28;20359;-63
2021/11/02 13:41:47;;;;;;;10.63;8.95;;;;;;;11.40;76.17;95700.09;5095110;28;20020;-65
2021/11/02 13:44:15;;;;;;;10.10;9.05;;;;;;;11.45;75.94;95692.88;5095272;28;20028;-62
2021/11/02 13:47:01;;;;;;;11.82;8.68;;;;;;;11.45;75.61;95695.47;5095165;28;20031;-64
2021/11/02 13:49:27;;;;;;;10.45;8.13;;;;;;;11.47;75.07;95699.69;5094983;28;20028;-60
2021/11/02 13:51:53;;;;;;;9.65;8.65;;;;;;;11.46;74.92;95703.25;5094919;28;20039;-61
2021/11/02 13:54:20;;;;;;;12.20;9.50;;;;;;;11.45;75.24;95698.94;5094829;28;20035;-64
2021/11/02 13:56:46;;;;;;;14.30;10.30;;;;;;;11.44;76.23;95693.81;5094332;28;20029;-59
2021/11/02 13:59:14;;;;;;;14.48;10.90;;;;;;;11.48;75.67;95687.47;5094184;28;20024;-61
2021/11/02 14:01:47;;;;;;;17.65;13.07;;;;;;;11.46;77.18;95681.44;5094818;28;20028;-66
2021/11/02 14:04:21;;;;;;;16.23;11.48;;;;;;;11.36;78.89;95676.75;5094732;28;20398;-61
2021/11/02 14:06:50;;;;;;;15.32;11.30;;;;;;;11.41;79.62;95692.16;5094854;28;20024;-65
2021/11/02 14:09:23;;;;;;;14.80;11.13;;;;;;;11.44;78.95;95688.56;5094648;28;20085;-65
2021/11/02 14:11:49;;;;;;;12.18;10.52;;;;;;;11.46;78.25;95692.78;5094705;28;20032;-62
2021/11/02 14:14:32;;;;;;;12.75;10.45;;;;;;;11.45;77.11;95696.34;5094454;28;20504;-61
2021/11/02 14:17:20;;;;;;;11.95;10.55;;;;;;;11.48;76.68;95703.16;5094704;28;20047;-62
2021/11/02 14:19:47;;;;;;;14.10;10.98;;;;;;;11.45;76.45;95698.09;5094457;28;20032;-61
2021/11/02 14:22:15;;;;;;;13.40;11.05;;;;;;;11.38;77.38;95693.19;5094352;28;20466;-65
2021/11/02 14:24:45;;;;;;;15.13;12.27;;;;;;;11.34;78.06;95682.97;5094325;28;20031;-63
2021/11/02 14:27:39;;;;;;;13.65;12.05;;;;;;;11.36;78.56;95686.34;5094357;28;20066;-61
2021/11/02 14:30:06;;;;;;;14.65;11.80;;;;;;;11.37;78.68;95690.66;5094196;28;20592;-59
2021/11/02 14:32:37;;;;;;;14.70;12.43;;;;;;;11.39;78.88;95688.81;5094201;28;20129;-63
2021/11/02 14:35:05;;;;;;;13.20;11.60;;;;;;;11.38;78.99;95687.13;5094137;28;20373;-63
2021/11/02 14:37:51;;;;;;;14.20;11.45;;;;;;;11.38;78.86;95679.28;5094096;28;20157;-64
2021/11/02 14:40:28;;;;;;;12.27;10.75;;;;;;;11.35;78.55;95690.75;5094128;28;20028;-61
2021/11/02 14:43:00;;;;;;;13.45;11.43;;;;;;;11.32;78.77;95690.09;5094133;28;20024;-62
2021/11/02 14:45:40;;;;;;;12.30;10.75;;;;;;;11.29;78.79;95693.69;5094129;28;20024;-66
2021/11/02 14:48:28;;;;;;;14.47;11.80;;;;;;;11.25;78.98;95700.03;5093921;28;20110;-64
2021/11/02 14:50:58;;;;;;;13.88;10.98;;;;;;;11.26;78.86;95699.13;5092635;28;20490;-64
2021/11/02 14:53:35;;;;;;;15.50;11.55;;;;;;;11.24;78.75;95701.81;5093853;28;20043;-63
2021/11/02 14:56:15;;;;;;;14.20;11.93;;;;;;;11.19;78.72;95701.22;5093772;28;20081;-62
2021/11/02 15:01:30;;;;;;;16.35;11.88;;;;;;;11.12;78.48;95692.84;5093593;28;20127;-62
2021/11/02 15:03:57;;;;;;;14.57;11.15;;;;;;;11.05;78.33;95699.31;5093677;28;20489;-66
2021/11/02 15:06:36;;;;;;;12.77;11.13;;;;;;;11.00;78.19;95698.72;5093546;28;20536;-61
2021/11/02 15:09:16;;;;;;;16.60;12.15;;;;;;;10.94;78.13;95689.44;5093219;28;20496;-63
2021/11/02 15:11:46;;;;;;;14.88;10.60;;;;;;;10.91;77.97;95693.97;5093543;28;20028;-64
2021/11/02 15:14:21;;;;;;;9.43;7.75;;;;;;;10.86;78.00;95689.84;5093672;28;20040;-63
2021/11/02 15:16:50;;;;;;;14.07;10.48;;;;;;;10.79;77.83;95687.63;5093413;28;20024;-64
2021/11/02 15:19:17;;;;;;;14.50;11.50;;;;;;;10.71;77.95;95686.25;5093378;28;20434;-61
2021/11/02 15:21:51;;;;;;;14.50;10.95;;;;;;;10.70;78.21;95694.19;5093526;28;20042;-63
2021/11/02 15:24:38;;;;;;;13.60;10.48;;;;;;;10.68;78.07;95701.25;5093394;28;20074;-64
2021/11/02 15:27:13;;;;;;;12.23;10.13;;;;;;;10.60;77.97;95701.69;5093368;28;20034;-66
2021/11/02 15:29:40;;;;;;;13.63;11.02;;;;;;;10.52;78.12;95707.28;5093320;28;20478;-61
2021/11/02 15:32:08;;;;;;;11.98;10.35;;;;;;;10.47;78.28;95717.97;5093241;28;20045;-62
2021/11/02 15:34:33;;;;;;;12.07;10.20;;;;;;;10.44;78.26;95717.25;5093120;28;20027;-62
2021/11/02 15:37:05;;;;;;;11.68;10.48;;;;;;;10.40;78.14;95715.72;5093267;28;20104;-65
2021/11/02 15:39:31;;;;;;;14.77;9.90;;;;;;;10.28;78.09;95712.81;5093157;28;20027;-60
2021/11/02 15:41:57;;;;;;;16.60;10.73;;;;;;;10.21;78.09;95703.59;5093164;28;20024;-64
2021/11/02 15:44:27;;;;;;;15.88;10.52;;;;;;;10.16;78.13;95700.34;5093144;28;20062;-65
2021/11/02 15:46:54;;;;;;;14.07;10.73;;;;;;;10.02;77.84;95707.09;5093273;28;20374;-63
2021/11/02 15:49:24;;;;;;;14.43;10.57;;;;;;;9.92;78.00;95706.72;5093038;28;20028;-62
2021/11/02 15:51:57;;;;;;;15.90;9.43;;;;;;;9.84;77.97;95711.44;5093214;28;20444;-66
2021/11/02 15:54:25;;;;;;;15.27;9.88;;;;;;;9.77;77.44;95713.53;5093010;28;20469;-63
2021/11/02 15:56:54;;;;;;;11.57;10.10;;;;;;;9.73;77.34;95717.19;5093019;28;20042;-63
2021/11/02 15:59:28;;;;;;;12.30;10.63;;;;;;;9.65;77.41;95716.72;5092712;28;20051;-62
2021/11/02 16:01:54;;;;;;;14.50;13.00;;;;;;;9.53;77.42;95720.75;5093094;28;20359;-64
2021/11/02 16:04:23;;;;;;;14.85;10.73;;;;;;;9.42;77.57;95714.25;5092845;28;20020;-59
2021/11/02 16:06:58;;;;;;;12.00;10.18;;;;;;;9.38;77.62;95717.09;5092892;28;20473;-62
2021/11/02 16:09:46;;;;;;;12.95;9.90;;;;;;;9.25;77.39;95712.44;5092899;28;20086;-62
2021/11/02 16:12:20;;;;;;;13.45;10.10;;;;;;;9.15;77.53;95711.19;5092778;28;20032;-62
2021/11/02 16:15:06;;;;;;;15.90;10.15;;;;;;;9.00;78.15;95712.72;5092950;28;20032;-62
2021/11/02 16:17:54;;;;;;;11.77;10.13;;;;;;;8.84;78.93;95716.84;5092884;28;20032;-60
2021/11/02 16:20:29;;;;;;;18.02;10.10;;;;;;;8.81;79.02;95714.38;5093204;28;20032;-62
2021/11/02 16:22:56;;;;;;;12.48;9.65;;;;;;;8.79;79.22;95713.59;5095630;28;20028;-61
2021/11/02 16:25:22;;;;;;;14.27;10.15;;;;;;;8.77;79.43;95714.56;5096762;28;20024;-61
2021/11/02 16:27:57;;;;;;;19.15;11.48;;;;;;;8.71;79.60;95711.34;5096560;28;20032;-63
2021/11/02 16:30:26;;;;;;;15.75;11.07;;;;;;;8.66;80.22;95709.81;5096572;28;20060;-62
2021/11/02 16:32:54;;;;;;;15.95;11.18;;;;;;;8.65;80.75;95729.00;5096508;28;20029;-63
2021/11/02 16:35:41;;;;;;;13.40;10.25;;;;;;;8.64;80.85;95722.94;5096410;28;20062;-64
2021/11/02 16:38:36;;;;;;;16.88;11.23;;;;;;;8.63;81.27;95731.66;5096447;28;20425;-64
2021/11/02 16:41:17;;;;;;;12.93;10.00;;;;;;;8.62;81.28;95736.94;5095237;28;20440;-63
2021/11/02 16:43:53;;;;;;;16.35;10.40;;;;;;;8.66;81.67;95738.50;5096262;28;20034;-63
2021/11/02 16:46:33;;;;;;;12.40;9.77;;;;;;;8.69;81.72;95733.16;5096188;28;20035;-64